sensor_id;sensor_type;location;lat;lon;timestamp;temperature;humidity
55777;DHT22;54079;44.540;18.784;2023-03-20T00:01:56;12.90;64.60
55777;DHT22;54079;44.540;18.784;2023-03-20T00:04:22;12.80;64.20
55777;DHT22;54079;44.540;18.784;2023-03-20T00:06:50;12.70;64.40
55777;DHT22;54079;44.540;18.784;2023-03-20T00:09:16;12.70;64.70
55777;DHT22;54079;44.540;18.784;2023-03-20T00:11:53;12.70;64.90
55777;DHT22;54079;44.540;18.784;2023-03-20T00:14:21;12.60;64.90
55777;DHT22;54079;44.540;18.784;2023-03-20T00:16:49;12.60;64.70
55777;DHT22;54079;44.540;18.784;2023-03-20T00:19:26;12.60;65.20
55777;DHT22;54079;44.540;18.784;2023-03-20T00:21:54;12.60;65.20
55777;DHT22;54079;44.540;18.784;2023-03-20T00:24:21;12.60;65.10
55777;DHT22;54079;44.540;18.784;2023-03-20T00:26:48;12.60;64.90
55777;DHT22;54079;44.540;18.784;2023-03-20T00:29:35;12.70;64.70
55777;DHT22;54079;44.540;18.784;2023-03-20T00:32:01;12.80;64.70
55777;DHT22;54079;44.540;18.784;2023-03-20T00:34:27;12.60;64.70
55777;DHT22;54079;44.540;18.784;2023-03-20T00:36:54;12.50;65.50
55777;DHT22;54079;44.540;18.784;2023-03-20T00:39:21;12.50;65.40
55777;DHT22;54079;44.540;18.784;2023-03-20T00:41:57;12.40;65.90
55777;DHT22;54079;44.540;18.784;2023-03-20T00:47:08;12.20;66.00
55777;DHT22;54079;44.540;18.784;2023-03-20T00:49:36;12.30;65.70
55777;DHT22;54079;44.540;18.784;2023-03-20T00:52:04;12.30;65.60
55777;DHT22;54079;44.540;18.784;2023-03-20T00:54:30;12.40;65.40
55777;DHT22;54079;44.540;18.784;2023-03-20T00:59:35;12.50;65.30
55777;DHT22;54079;44.540;18.784;2023-03-20T01:02:01;12.50;65.30
55777;DHT22;54079;44.540;18.784;2023-03-20T01:04:35;12.40;65.40
55777;DHT22;54079;44.540;18.784;2023-03-20T01:07:02;12.40;66.00
55777;DHT22;54079;44.540;18.784;2023-03-20T01:09:28;12.30;65.70
55777;DHT22;54079;44.540;18.784;2023-03-20T01:11:54;12.30;65.80
55777;DHT22;54079;44.540;18.784;2023-03-20T01:14:20;12.30;65.90
55777;DHT22;54079;44.540;18.784;2023-03-20T01:16:46;12.30;65.80
55777;DHT22;54079;44.540;18.784;2023-03-20T01:19:13;12.20;66.20
55777;DHT22;54079;44.540;18.784;2023-03-20T01:21:40;12.20;66.20
55777;DHT22;54079;44.540;18.784;2023-03-20T01:24:06;12.20;66.30
55777;DHT22;54079;44.540;18.784;2023-03-20T01:26:37;12.10;66.50
55777;DHT22;54079;44.540;18.784;2023-03-20T01:29:11;12.10;66.40
55777;DHT22;54079;44.540;18.784;2023-03-20T01:31:41;11.90;66.80
55777;DHT22;54079;44.540;18.784;2023-03-20T01:34:09;11.90;67.10
55777;DHT22;54079;44.540;18.784;2023-03-20T01:36:36;11.90;67.70
55777;DHT22;54079;44.540;18.784;2023-03-20T01:39:03;12.00;67.30
55777;DHT22;54079;44.540;18.784;2023-03-20T01:41:29;12.00;67.30
55777;DHT22;54079;44.540;18.784;2023-03-20T01:44:16;11.90;67.50
55777;DHT22;54079;44.540;18.784;2023-03-20T01:46:42;11.80;67.60
55777;DHT22;54079;44.540;18.784;2023-03-20T01:51:45;11.90;67.10
55777;DHT22;54079;44.540;18.784;2023-03-20T01:54:21;12.00;66.90
55777;DHT22;54079;44.540;18.784;2023-03-20T01:56:58;12.10;67.00
55777;DHT22;54079;44.540;18.784;2023-03-20T01:59:33;12.20;66.70
55777;DHT22;54079;44.540;18.784;2023-03-20T02:01:59;12.10;67.30
55777;DHT22;54079;44.540;18.784;2023-03-20T02:04:29;11.90;67.60
55777;DHT22;54079;44.540;18.784;2023-03-20T02:06:59;11.80;68.20
55777;DHT22;54079;44.540;18.784;2023-03-20T02:09:25;11.80;68.30
55777;DHT22;54079;44.540;18.784;2023-03-20T02:11:51;11.80;69.20
55777;DHT22;54079;44.540;18.784;2023-03-20T02:14:19;11.60;69.10
55777;DHT22;54079;44.540;18.784;2023-03-20T02:16:45;11.60;68.90
55777;DHT22;54079;44.540;18.784;2023-03-20T02:19:26;11.60;69.90
55777;DHT22;54079;44.540;18.784;2023-03-20T02:44:11;11.90;67.30
55777;DHT22;54079;44.540;18.784;2023-03-20T02:57:56;12.10;67.30
55777;DHT22;54079;44.540;18.784;2023-03-20T03:03:14;12.10;67.90
55777;DHT22;54079;44.540;18.784;2023-03-20T03:06:06;11.90;68.60
55777;DHT22;54079;44.540;18.784;2023-03-20T03:08:35;11.80;68.80
55777;DHT22;54079;44.540;18.784;2023-03-20T03:11:07;11.70;69.30
55777;DHT22;54079;44.540;18.784;2023-03-20T03:13:39;11.60;69.10
55777;DHT22;54079;44.540;18.784;2023-03-20T03:16:23;11.60;69.00
55777;DHT22;54079;44.540;18.784;2023-03-20T03:19:00;11.70;68.80
55777;DHT22;54079;44.540;18.784;2023-03-20T03:21:28;11.60;68.90
55777;DHT22;54079;44.540;18.784;2023-03-20T03:23:55;11.60;69.00
55777;DHT22;54079;44.540;18.784;2023-03-20T03:26:26;11.60;69.20
55777;DHT22;54079;44.540;18.784;2023-03-20T03:28:54;11.60;69.90
55777;DHT22;54079;44.540;18.784;2023-03-20T03:31:20;11.60;68.90
55777;DHT22;54079;44.540;18.784;2023-03-20T03:33:50;11.60;68.70
55777;DHT22;54079;44.540;18.784;2023-03-20T03:42:21;11.60;68.80
55777;DHT22;54079;44.540;18.784;2023-03-20T03:45:07;11.50;68.70
55777;DHT22;54079;44.540;18.784;2023-03-20T03:47:51;11.50;68.50
55777;DHT22;54079;44.540;18.784;2023-03-20T03:50:32;11.50;68.80
55777;DHT22;54079;44.540;18.784;2023-03-20T03:53:05;11.40;69.60
55777;DHT22;54079;44.540;18.784;2023-03-20T03:55:38;11.30;68.90
55777;DHT22;54079;44.540;18.784;2023-03-20T03:58:12;11.30;69.10
55777;DHT22;54079;44.540;18.784;2023-03-20T04:00:41;11.40;68.60
55777;DHT22;54079;44.540;18.784;2023-03-20T04:03:09;11.70;68.10
55777;DHT22;54079;44.540;18.784;2023-03-20T04:05:37;11.60;68.90
55777;DHT22;54079;44.540;18.784;2023-03-20T04:08:05;11.60;69.20
55777;DHT22;54079;44.540;18.784;2023-03-20T04:10:32;11.60;68.40
55777;DHT22;54079;44.540;18.784;2023-03-20T04:12:58;11.60;68.70
55777;DHT22;54079;44.540;18.784;2023-03-20T04:15:24;11.40;69.60
55777;DHT22;54079;44.540;18.784;2023-03-20T04:17:52;11.40;69.30
55777;DHT22;54079;44.540;18.784;2023-03-20T04:20:18;11.30;69.20
55777;DHT22;54079;44.540;18.784;2023-03-20T04:22:44;11.30;69.20
55777;DHT22;54079;44.540;18.784;2023-03-20T04:25:24;11.30;69.60
55777;DHT22;54079;44.540;18.784;2023-03-20T04:27:51;11.30;69.20
55777;DHT22;54079;44.540;18.784;2023-03-20T04:30:17;11.20;69.10
55777;DHT22;54079;44.540;18.784;2023-03-20T04:32:43;11.10;69.90
55777;DHT22;54079;44.540;18.784;2023-03-20T04:35:09;11.10;69.60
55777;DHT22;54079;44.540;18.784;2023-03-20T04:37:35;11.20;69.70
55777;DHT22;54079;44.540;18.784;2023-03-20T04:40:02;11.10;69.80
55777;DHT22;54079;44.540;18.784;2023-03-20T04:42:28;11.00;70.00
55777;DHT22;54079;44.540;18.784;2023-03-20T04:44:54;10.90;70.10
55777;DHT22;54079;44.540;18.784;2023-03-20T04:47:20;10.90;70.00
55777;DHT22;54079;44.540;18.784;2023-03-20T04:49:45;10.90;70.50
55777;DHT22;54079;44.540;18.784;2023-03-20T04:52:11;10.90;70.50
55777;DHT22;54079;44.540;18.784;2023-03-20T04:54:37;10.70;70.80
55777;DHT22;54079;44.540;18.784;2023-03-20T04:57:03;10.70;70.70
55777;DHT22;54079;44.540;18.784;2023-03-20T04:59:29;10.70;71.10
55777;DHT22;54079;44.540;18.784;2023-03-20T05:01:55;10.60;71.30
55777;DHT22;54079;44.540;18.784;2023-03-20T05:04:21;10.80;71.00
55777;DHT22;54079;44.540;18.784;2023-03-20T05:06:47;10.90;70.70
55777;DHT22;54079;44.540;18.784;2023-03-20T05:09:15;10.80;71.10
55777;DHT22;54079;44.540;18.784;2023-03-20T05:11:42;10.80;70.90
55777;DHT22;54079;44.540;18.784;2023-03-20T05:14:08;10.90;71.10
55777;DHT22;54079;44.540;18.784;2023-03-20T05:16:34;10.90;70.80
55777;DHT22;54079;44.540;18.784;2023-03-20T05:19:00;11.00;70.90
55777;DHT22;54079;44.540;18.784;2023-03-20T05:21:26;11.00;70.80
55777;DHT22;54079;44.540;18.784;2023-03-20T05:23:52;11.00;70.70
55777;DHT22;54079;44.540;18.784;2023-03-20T05:26:18;11.10;70.60
55777;DHT22;54079;44.540;18.784;2023-03-20T05:28:44;11.10;70.90
55777;DHT22;54079;44.540;18.784;2023-03-20T05:31:10;11.20;70.30
55777;DHT22;54079;44.540;18.784;2023-03-20T05:33:37;11.20;70.10
55777;DHT22;54079;44.540;18.784;2023-03-20T05:36:03;11.30;70.00
55777;DHT22;54079;44.540;18.784;2023-03-20T05:38:29;11.40;69.70
55777;DHT22;54079;44.540;18.784;2023-03-20T05:40:59;11.50;69.30
55777;DHT22;54079;44.540;18.784;2023-03-20T05:43:25;11.70;68.90
55777;DHT22;54079;44.540;18.784;2023-03-20T05:45:56;11.90;68.50
55777;DHT22;54079;44.540;18.784;2023-03-20T05:48:22;12.00;68.40
55777;DHT22;54079;44.540;18.784;2023-03-20T05:50:48;12.30;68.20
55777;DHT22;54079;44.540;18.784;2023-03-20T05:53:14;12.60;67.70
55777;DHT22;54079;44.540;18.784;2023-03-20T05:55:40;12.70;66.60
55777;DHT22;54079;44.540;18.784;2023-03-20T05:58:09;12.90;66.40
55777;DHT22;54079;44.540;18.784;2023-03-20T06:00:35;13.20;66.00
55777;DHT22;54079;44.540;18.784;2023-03-20T06:03:01;13.50;65.30
55777;DHT22;54079;44.540;18.784;2023-03-20T06:05:27;13.70;64.60
55777;DHT22;54079;44.540;18.784;2023-03-20T06:07:53;13.80;64.10
55777;DHT22;54079;44.540;18.784;2023-03-20T06:10:19;13.80;64.00
55777;DHT22;54079;44.540;18.784;2023-03-20T06:12:45;14.00;64.50
55777;DHT22;54079;44.540;18.784;2023-03-20T06:15:11;14.10;64.30
55777;DHT22;54079;44.540;18.784;2023-03-20T06:17:37;14.20;64.40
55777;DHT22;54079;44.540;18.784;2023-03-20T06:20:04;14.20;64.90
55777;DHT22;54079;44.540;18.784;2023-03-20T06:22:30;14.30;65.20
55777;DHT22;54079;44.540;18.784;2023-03-20T06:24:56;14.30;64.80
55777;DHT22;54079;44.540;18.784;2023-03-20T06:27:22;14.30;63.70
55777;DHT22;54079;44.540;18.784;2023-03-20T06:29:48;14.30;63.50
55777;DHT22;54079;44.540;18.784;2023-03-20T06:32:14;14.40;63.10
55777;DHT22;54079;44.540;18.784;2023-03-20T06:34:41;14.50;62.80
55777;DHT22;54079;44.540;18.784;2023-03-20T06:37:07;14.90;62.70
55777;DHT22;54079;44.540;18.784;2023-03-20T06:39:33;15.40;62.60
55777;DHT22;54079;44.540;18.784;2023-03-20T06:41:59;16.20;61.30
55777;DHT22;54079;44.540;18.784;2023-03-20T06:44:25;16.90;59.90
55777;DHT22;54079;44.540;18.784;2023-03-20T06:46:51;18.00;57.60
55777;DHT22;54079;44.540;18.784;2023-03-20T06:49:17;19.40;56.50
55777;DHT22;54079;44.540;18.784;2023-03-20T06:51:43;20.90;55.20
55777;DHT22;54079;44.540;18.784;2023-03-20T06:54:12;21.70;53.50
55777;DHT22;54079;44.540;18.784;2023-03-20T06:56:38;22.70;51.40
55777;DHT22;54079;44.540;18.784;2023-03-20T06:59:03;23.30;51.10
55777;DHT22;54079;44.540;18.784;2023-03-20T07:01:29;24.10;50.40
55777;DHT22;54079;44.540;18.784;2023-03-20T07:03:55;25.10;48.50
55777;DHT22;54079;44.540;18.784;2023-03-20T07:06:21;25.80;47.30
55777;DHT22;54079;44.540;18.784;2023-03-20T07:08:47;26.40;46.20
55777;DHT22;54079;44.540;18.784;2023-03-20T07:11:13;26.80;46.60
55777;DHT22;54079;44.540;18.784;2023-03-20T07:13:39;27.30;46.00
55777;DHT22;54079;44.540;18.784;2023-03-20T07:16:06;27.70;45.30
55777;DHT22;54079;44.540;18.784;2023-03-20T07:18:32;27.90;45.10
55777;DHT22;54079;44.540;18.784;2023-03-20T07:21:01;28.10;45.10
55777;DHT22;54079;44.540;18.784;2023-03-20T07:23:28;28.40;44.70
55777;DHT22;54079;44.540;18.784;2023-03-20T07:25:55;28.40;43.40
55777;DHT22;54079;44.540;18.784;2023-03-20T07:28:21;28.40;43.90
55777;DHT22;54079;44.540;18.784;2023-03-20T07:30:47;28.60;44.30
55777;DHT22;54079;44.540;18.784;2023-03-20T07:33:13;29.30;44.60
55777;DHT22;54079;44.540;18.784;2023-03-20T07:35:40;29.90;44.20
55777;DHT22;54079;44.540;18.784;2023-03-20T07:38:06;30.30;43.70
55777;DHT22;54079;44.540;18.784;2023-03-20T07:40:32;30.30;43.70
55777;DHT22;54079;44.540;18.784;2023-03-20T07:42:58;30.10;43.30
55777;DHT22;54079;44.540;18.784;2023-03-20T07:45:24;29.70;43.40
55777;DHT22;54079;44.540;18.784;2023-03-20T07:47:50;29.70;43.80
55777;DHT22;54079;44.540;18.784;2023-03-20T07:50:16;29.80;44.10
55777;DHT22;54079;44.540;18.784;2023-03-20T07:52:48;29.80;43.90
55777;DHT22;54079;44.540;18.784;2023-03-20T07:55:16;29.90;43.90
55777;DHT22;54079;44.540;18.784;2023-03-20T07:57:42;30.00;43.60
55777;DHT22;54079;44.540;18.784;2023-03-20T08:00:09;30.30;43.60
55777;DHT22;54079;44.540;18.784;2023-03-20T08:02:35;30.50;43.50
55777;DHT22;54079;44.540;18.784;2023-03-20T08:05:01;31.10;43.30
55777;DHT22;54079;44.540;18.784;2023-03-20T08:07:27;31.00;42.80
55777;DHT22;54079;44.540;18.784;2023-03-20T08:09:56;31.00;42.90
55777;DHT22;54079;44.540;18.784;2023-03-20T08:12:22;30.80;42.30
55777;DHT22;54079;44.540;18.784;2023-03-20T08:14:48;30.40;42.20
55777;DHT22;54079;44.540;18.784;2023-03-20T08:17:14;30.20;42.40
55777;DHT22;54079;44.540;18.784;2023-03-20T08:19:40;29.80;42.70
55777;DHT22;54079;44.540;18.784;2023-03-20T08:22:06;29.00;43.00
55777;DHT22;54079;44.540;18.784;2023-03-20T08:24:31;28.60;43.80
55777;DHT22;54079;44.540;18.784;2023-03-20T08:26:59;28.60;44.10
55777;DHT22;54079;44.540;18.784;2023-03-20T08:29:25;28.40;43.90
55777;DHT22;54079;44.540;18.784;2023-03-20T08:31:51;28.40;43.60
55777;DHT22;54079;44.540;18.784;2023-03-20T08:34:17;28.50;43.40
55777;DHT22;54079;44.540;18.784;2023-03-20T08:36:43;28.70;43.40
55777;DHT22;54079;44.540;18.784;2023-03-20T08:39:09;29.20;42.90
55777;DHT22;54079;44.540;18.784;2023-03-20T08:41:38;29.40;42.10
55777;DHT22;54079;44.540;18.784;2023-03-20T08:44:06;29.60;41.90
55777;DHT22;54079;44.540;18.784;2023-03-20T08:46:32;29.80;41.70
55777;DHT22;54079;44.540;18.784;2023-03-20T08:48:59;30.30;41.90
55777;DHT22;54079;44.540;18.784;2023-03-20T08:51:25;30.80;41.70
55777;DHT22;54079;44.540;18.784;2023-03-20T08:53:52;31.50;40.80
55777;DHT22;54079;44.540;18.784;2023-03-20T08:56:18;31.50;40.90
55777;DHT22;54079;44.540;18.784;2023-03-20T08:58:44;31.80;40.90
55777;DHT22;54079;44.540;18.784;2023-03-20T09:01:10;32.10;40.50
55777;DHT22;54079;44.540;18.784;2023-03-20T09:03:36;32.50;40.50
55777;DHT22;54079;44.540;18.784;2023-03-20T09:06:07;33.10;40.20
55777;DHT22;54079;44.540;18.784;2023-03-20T09:08:33;33.60;40.10
55777;DHT22;54079;44.540;18.784;2023-03-20T09:11:00;33.40;40.00
55777;DHT22;54079;44.540;18.784;2023-03-20T09:13:26;33.20;40.20
55777;DHT22;54079;44.540;18.784;2023-03-20T09:15:53;32.70;39.90
55777;DHT22;54079;44.540;18.784;2023-03-20T09:18:20;31.90;39.10
55777;DHT22;54079;44.540;18.784;2023-03-20T09:20:46;31.10;40.10
55777;DHT22;54079;44.540;18.784;2023-03-20T09:23:12;30.70;41.20
55777;DHT22;54079;44.540;18.784;2023-03-20T09:25:38;30.80;41.10
55777;DHT22;54079;44.540;18.784;2023-03-20T09:28:04;30.70;41.60
55777;DHT22;54079;44.540;18.784;2023-03-20T09:30:30;29.90;42.50
55777;DHT22;54079;44.540;18.784;2023-03-20T09:32:56;29.00;42.80
55777;DHT22;54079;44.540;18.784;2023-03-20T09:35:22;28.00;44.20
55777;DHT22;54079;44.540;18.784;2023-03-20T09:37:48;27.50;44.70
55777;DHT22;54079;44.540;18.784;2023-03-20T09:40:53;27.20;44.10
55777;DHT22;54079;44.540;18.784;2023-03-20T09:51:42;26.00;45.60
55777;DHT22;54079;44.540;18.784;2023-03-20T09:54:23;26.00;44.40
55777;DHT22;54079;44.540;18.784;2023-03-20T09:56:51;26.00;44.60
55777;DHT22;54079;44.540;18.784;2023-03-20T09:59:18;25.90;44.60
55777;DHT22;54079;44.540;18.784;2023-03-20T10:04:16;25.10;44.00
55777;DHT22;54079;44.540;18.784;2023-03-20T10:06:42;24.50;45.50
55777;DHT22;54079;44.540;18.784;2023-03-20T10:09:25;23.60;46.30
55777;DHT22;54079;44.540;18.784;2023-03-20T10:20:32;23.00;46.80
55777;DHT22;54079;44.540;18.784;2023-03-20T10:23:25;23.10;45.10
55777;DHT22;54079;44.540;18.784;2023-03-20T10:26:02;23.20;44.50
55777;DHT22;54079;44.540;18.784;2023-03-20T10:33:28;23.20;45.00
55777;DHT22;54079;44.540;18.784;2023-03-20T10:39:06;23.30;46.30
55777;DHT22;54079;44.540;18.784;2023-03-20T10:41:36;23.30;45.30
55777;DHT22;54079;44.540;18.784;2023-03-20T10:44:04;23.20;45.00
55777;DHT22;54079;44.540;18.784;2023-03-20T10:46:40;23.20;46.10
55777;DHT22;54079;44.540;18.784;2023-03-20T10:49:35;23.00;45.10
55777;DHT22;54079;44.540;18.784;2023-03-20T10:52:09;23.20;45.90
55777;DHT22;54079;44.540;18.784;2023-03-20T10:54:39;23.30;44.30
55777;DHT22;54079;44.540;18.784;2023-03-20T10:57:21;23.40;44.30
55777;DHT22;54079;44.540;18.784;2023-03-20T10:59:50;23.40;44.60
55777;DHT22;54079;44.540;18.784;2023-03-20T11:02:19;23.40;44.40
55777;DHT22;54079;44.540;18.784;2023-03-20T11:04:45;23.50;44.50
55777;DHT22;54079;44.540;18.784;2023-03-20T11:07:23;23.50;44.00
55777;DHT22;54079;44.540;18.784;2023-03-20T11:10:11;23.50;44.00
55777;DHT22;54079;44.540;18.784;2023-03-20T11:12:41;23.20;44.20
55777;DHT22;54079;44.540;18.784;2023-03-20T11:15:26;23.20;44.90
55777;DHT22;54079;44.540;18.784;2023-03-20T11:18:04;23.00;43.70
55777;DHT22;54079;44.540;18.784;2023-03-20T11:20:37;23.00;44.40
55777;DHT22;54079;44.540;18.784;2023-03-20T11:23:06;22.80;44.80
55777;DHT22;54079;44.540;18.784;2023-03-20T11:25:45;22.80;44.80
55777;DHT22;54079;44.540;18.784;2023-03-20T11:36:54;23.00;44.10
55777;DHT22;54079;44.540;18.784;2023-03-20T11:39:28;23.10;44.30
55777;DHT22;54079;44.540;18.784;2023-03-20T11:42:00;23.20;44.70
55777;DHT22;54079;44.540;18.784;2023-03-20T11:44:31;23.20;44.90
55777;DHT22;54079;44.540;18.784;2023-03-20T11:47:19;23.30;45.10
55777;DHT22;54079;44.540;18.784;2023-03-20T11:49:58;23.30;44.20
55777;DHT22;54079;44.540;18.784;2023-03-20T11:52:32;23.20;43.40
55777;DHT22;54079;44.540;18.784;2023-03-20T11:55:02;23.20;43.30
55777;DHT22;54079;44.540;18.784;2023-03-20T11:57:33;23.40;44.00
55777;DHT22;54079;44.540;18.784;2023-03-20T12:02:41;23.60;44.10
55777;DHT22;54079;44.540;18.784;2023-03-20T12:05:28;23.60;44.30
55777;DHT22;54079;44.540;18.784;2023-03-20T12:07:58;23.60;44.10
55777;DHT22;54079;44.540;18.784;2023-03-20T12:10:31;23.60;44.10
55777;DHT22;54079;44.540;18.784;2023-03-20T12:13:15;23.70;44.30
55777;DHT22;54079;44.540;18.784;2023-03-20T12:15:53;23.60;43.20
55777;DHT22;54079;44.540;18.784;2023-03-20T12:18:34;23.50;44.30
55777;DHT22;54079;44.540;18.784;2023-03-20T12:21:11;23.70;44.90
55777;DHT22;54079;44.540;18.784;2023-03-20T12:23:51;24.00;44.90
55777;DHT22;54079;44.540;18.784;2023-03-20T12:26:25;24.00;43.40
55777;DHT22;54079;44.540;18.784;2023-03-20T12:28:55;23.90;43.90
55777;DHT22;54079;44.540;18.784;2023-03-20T12:31:29;23.70;44.80
55777;DHT22;54079;44.540;18.784;2023-03-20T12:34:09;23.40;47.40
55777;DHT22;54079;44.540;18.784;2023-03-20T12:36:40;23.00;47.90
55777;DHT22;54079;44.540;18.784;2023-03-20T12:39:34;22.80;48.10
55777;DHT22;54079;44.540;18.784;2023-03-20T12:47:37;22.50;48.80
55777;DHT22;54079;44.540;18.784;2023-03-20T12:55:53;21.90;49.50
55777;DHT22;54079;44.540;18.784;2023-03-20T12:58:48;22.30;49.80
55777;DHT22;54079;44.540;18.784;2023-03-20T13:01:28;22.50;49.60
55777;DHT22;54079;44.540;18.784;2023-03-20T13:23:08;21.90;50.90
55777;DHT22;54079;44.540;18.784;2023-03-20T13:25:39;21.90;51.20
55777;DHT22;54079;44.540;18.784;2023-03-20T13:28:34;21.70;50.40
55777;DHT22;54079;44.540;18.784;2023-03-20T13:31:33;21.80;51.50
55777;DHT22;54079;44.540;18.784;2023-03-20T13:39:28;21.60;52.00
55777;DHT22;54079;44.540;18.784;2023-03-20T13:41:56;21.50;51.60
55777;DHT22;54079;44.540;18.784;2023-03-20T13:44:26;21.40;52.20
55777;DHT22;54079;44.540;18.784;2023-03-20T13:47:14;21.30;52.90
55777;DHT22;54079;44.540;18.784;2023-03-20T13:52:33;20.90;53.00
55777;DHT22;54079;44.540;18.784;2023-03-20T14:03:34;20.60;53.70
55777;DHT22;54079;44.540;18.784;2023-03-20T14:06:16;20.60;53.90
55777;DHT22;54079;44.540;18.784;2023-03-20T14:08:51;20.50;54.10
55777;DHT22;54079;44.540;18.784;2023-03-20T14:13:55;20.20;54.60
55777;DHT22;54079;44.540;18.784;2023-03-20T14:16:22;20.00;55.00
55777;DHT22;54079;44.540;18.784;2023-03-20T14:19:07;19.90;55.70
55777;DHT22;54079;44.540;18.784;2023-03-20T14:21:35;20.00;55.80
55777;DHT22;54079;44.540;18.784;2023-03-20T14:24:05;20.10;56.00
55777;DHT22;54079;44.540;18.784;2023-03-20T14:26:37;20.20;56.20
55777;DHT22;54079;44.540;18.784;2023-03-20T14:31:37;19.90;56.50
55777;DHT22;54079;44.540;18.784;2023-03-20T14:34:16;20.00;56.30
55777;DHT22;54079;44.540;18.784;2023-03-20T14:36:55;20.20;56.60
55777;DHT22;54079;44.540;18.784;2023-03-20T14:50:27;20.10;57.30
55777;DHT22;54079;44.540;18.784;2023-03-20T14:53:03;19.90;57.90
55777;DHT22;54079;44.540;18.784;2023-03-20T14:55:49;19.60;58.50
55777;DHT22;54079;44.540;18.784;2023-03-20T15:01:02;19.40;59.30
55777;DHT22;54079;44.540;18.784;2023-03-20T15:03:29;19.30;59.50
55777;DHT22;54079;44.540;18.784;2023-03-20T15:05:58;19.30;59.30
55777;DHT22;54079;44.540;18.784;2023-03-20T15:08:32;19.20;59.20
55777;DHT22;54079;44.540;18.784;2023-03-20T15:11:04;19.30;59.50
55777;DHT22;54079;44.540;18.784;2023-03-20T15:13:33;19.30;59.50
55777;DHT22;54079;44.540;18.784;2023-03-20T15:16:06;19.30;59.80
55777;DHT22;54079;44.540;18.784;2023-03-20T15:18:35;19.30;59.70
55777;DHT22;54079;44.540;18.784;2023-03-20T15:21:01;19.20;59.60
55777;DHT22;54079;44.540;18.784;2023-03-20T15:23:28;19.10;60.00
55777;DHT22;54079;44.540;18.784;2023-03-20T15:25:55;19.00;60.30
55777;DHT22;54079;44.540;18.784;2023-03-20T15:28:23;18.80;60.60
55777;DHT22;54079;44.540;18.784;2023-03-20T15:30:52;18.70;61.20
55777;DHT22;54079;44.540;18.784;2023-03-20T15:33:28;18.70;61.60
55777;DHT22;54079;44.540;18.784;2023-03-20T15:35:56;18.70;61.70
55777;DHT22;54079;44.540;18.784;2023-03-20T15:38:29;18.70;61.50
55777;DHT22;54079;44.540;18.784;2023-03-20T15:40:57;18.50;61.40
55777;DHT22;54079;44.540;18.784;2023-03-20T15:43:25;18.30;61.70
55777;DHT22;54079;44.540;18.784;2023-03-20T15:45:53;18.30;62.00
55777;DHT22;54079;44.540;18.784;2023-03-20T15:48:22;18.20;62.30
55777;DHT22;54079;44.540;18.784;2023-03-20T15:50:54;18.10;62.40
55777;DHT22;54079;44.540;18.784;2023-03-20T15:53:42;18.10;62.60
55777;DHT22;54079;44.540;18.784;2023-03-20T15:56:13;18.10;62.50
55777;DHT22;54079;44.540;18.784;2023-03-20T15:58:40;18.10;62.70
55777;DHT22;54079;44.540;18.784;2023-03-20T16:01:08;17.90;62.80
55777;DHT22;54079;44.540;18.784;2023-03-20T16:03:38;17.80;63.20
55777;DHT22;54079;44.540;18.784;2023-03-20T16:06:08;17.70;63.60
55777;DHT22;54079;44.540;18.784;2023-03-20T16:08:35;17.70;64.00
55777;DHT22;54079;44.540;18.784;2023-03-20T16:11:15;17.80;64.10
55777;DHT22;54079;44.540;18.784;2023-03-20T16:13:44;17.80;64.00
55777;DHT22;54079;44.540;18.784;2023-03-20T16:16:15;17.70;64.00
55777;DHT22;54079;44.540;18.784;2023-03-20T16:18:42;17.70;64.00
55777;DHT22;54079;44.540;18.784;2023-03-20T16:21:21;17.70;64.20
55777;DHT22;54079;44.540;18.784;2023-03-20T16:23:52;17.70;64.40
55777;DHT22;54079;44.540;18.784;2023-03-20T16:26:21;17.60;64.40
55777;DHT22;54079;44.540;18.784;2023-03-20T16:28:59;17.60;64.50
55777;DHT22;54079;44.540;18.784;2023-03-20T16:33:53;17.60;64.60
55777;DHT22;54079;44.540;18.784;2023-03-20T16:36:31;17.50;64.80
55777;DHT22;54079;44.540;18.784;2023-03-20T16:41:42;17.50;64.80
55777;DHT22;54079;44.540;18.784;2023-03-20T16:44:17;17.50;65.00
55777;DHT22;54079;44.540;18.784;2023-03-20T16:47:07;17.50;65.20
55777;DHT22;54079;44.540;18.784;2023-03-20T16:52:28;17.40;65.30
55777;DHT22;54079;44.540;18.784;2023-03-20T16:54:59;17.40;65.30
55777;DHT22;54079;44.540;18.784;2023-03-20T16:57:26;17.30;65.70
55777;DHT22;54079;44.540;18.784;2023-03-20T16:59:56;17.30;65.60
55777;DHT22;54079;44.540;18.784;2023-03-20T17:02:29;17.30;65.40
55777;DHT22;54079;44.540;18.784;2023-03-20T17:05:01;17.30;65.60
55777;DHT22;54079;44.540;18.784;2023-03-20T17:07:28;17.20;65.70
55777;DHT22;54079;44.540;18.784;2023-03-20T17:12:47;17.10;66.00
55777;DHT22;54079;44.540;18.784;2023-03-20T17:15:20;17.10;66.10
55777;DHT22;54079;44.540;18.784;2023-03-20T17:17:46;17.10;66.10
55777;DHT22;54079;44.540;18.784;2023-03-20T17:20:24;17.10;66.10
55777;DHT22;54079;44.540;18.784;2023-03-20T17:22:51;17.10;66.70
55777;DHT22;54079;44.540;18.784;2023-03-20T17:25:18;17.00;66.20
55777;DHT22;54079;44.540;18.784;2023-03-20T17:27:45;17.00;66.40
55777;DHT22;54079;44.540;18.784;2023-03-20T17:30:19;17.00;66.50
55777;DHT22;54079;44.540;18.784;2023-03-20T17:32:45;16.90;66.40
55777;DHT22;54079;44.540;18.784;2023-03-20T17:35:11;16.80;66.60
55777;DHT22;54079;44.540;18.784;2023-03-20T17:37:37;16.80;66.60
55777;DHT22;54079;44.540;18.784;2023-03-20T17:40:04;16.90;66.70
55777;DHT22;54079;44.540;18.784;2023-03-20T17:42:30;16.90;66.60
55777;DHT22;54079;44.540;18.784;2023-03-20T17:44:57;16.80;66.70
55777;DHT22;54079;44.540;18.784;2023-03-20T17:47:25;16.90;66.60
55777;DHT22;54079;44.540;18.784;2023-03-20T17:49:52;16.80;66.80
55777;DHT22;54079;44.540;18.784;2023-03-20T17:52:24;16.80;67.00
55777;DHT22;54079;44.540;18.784;2023-03-20T17:54:51;16.70;66.90
55777;DHT22;54079;44.540;18.784;2023-03-20T17:57:25;16.70;66.90
55777;DHT22;54079;44.540;18.784;2023-03-20T17:59:51;16.60;67.10
55777;DHT22;54079;44.540;18.784;2023-03-20T18:02:18;16.60;67.10
55777;DHT22;54079;44.540;18.784;2023-03-20T18:04:45;16.60;67.10
55777;DHT22;54079;44.540;18.784;2023-03-20T18:07:11;16.50;67.30
55777;DHT22;54079;44.540;18.784;2023-03-20T18:09:41;16.60;67.30
55777;DHT22;54079;44.540;18.784;2023-03-20T18:12:12;16.60;67.10
55777;DHT22;54079;44.540;18.784;2023-03-20T18:14:38;16.50;67.30
55777;DHT22;54079;44.540;18.784;2023-03-20T18:17:05;16.60;67.30
55777;DHT22;54079;44.540;18.784;2023-03-20T18:19:31;16.60;67.20